Nearby METAR Reports

 

KHCR - Heber/Russ Mcdon, Utah, USA
Distance from station: SSW 18mi, 29km
Updated: Tue, 05-Jul-2022 6:35am MDT
Clear
Clear
 Wind from calm
Wind: Calm
Temperature: 46°F , 8°C
Dew Point: 36°F , 2°C
Humidity: 66%
Barometer: 30.10 inHg , 1019.3 hPa
Clouds: Clear
2022/07/05 12:35 KHCR 051235Z AUTO 00000KT CLR 08/02 A3010 RMK AO2 PWINO
KSLC - Salt Lake City, Utah, USA
Distance from station: W 35mi, 57km
Updated: Tue, 05-Jul-2022 5:54am MDT
Few Clouds
Few Clouds
 Wind from SSW
Wind: SSW 12 mph , 19 km/h, Gust: 21 mph , 33 km/h
Temperature: 79°F , 26°C
Dew Point: 28°F , -2°C
Humidity: 16%
Barometer: 29.96 inHg , 1014.6 hPa
Clouds: Few Clouds
Visibility: 10 miles , 16 km
Cloud details: Few Clouds 12000 ft
2022/07/05 11:54 KSLC 051154Z 20010G18KT 10SM FEW120 26/M02 A2996 RMK AO2 SLP075 T02561017 10278 20256 53014
 
KU42 - Salt Lake Muni, Utah, USA
Distance from station: WSW 37mi, 59km
Updated: Tue, 05-Jul-2022 6:35am MDT
Clear
Clear
 Wind from SSE
Wind: SSE 17 mph , 28 km/h
Temperature: 72°F , 22°C
Dew Point: 43°F , 6°C
Humidity: 36%
Barometer: 30.02 inHg , 1016.6 hPa
Clouds: Clear
Visibility: 10 miles , 16 km
2022/07/05 12:35 KU42 051235Z AUTO 16015KT 10SM CLR 22/06 A3002 RMK AO1 T02200062
KEVW - Evanston, Wyoming, USA
Distance from station: NNE 40mi, 64km
Updated: Tue, 05-Jul-2022 5:53am MDT
Clear
Clear
 Wind from S
Wind: S 6 mph , 9 km/h
Temperature: 57°F , 14°C
Dew Point: 21°F , -6°C
Humidity: 25%
Barometer: 30.17 inHg , 1021.7 hPa
Clouds: Clear
Visibility: 10 miles , 16 km
2022/07/05 11:53 KEVW 051153Z AUTO 17005KT 10SM CLR 14/M06 A3017 RMK AO2 SLP110 T01391056 10183 20133 53008
 
KPVU - Provo Muni, Utah, USA
Distance from station: SSW 41mi, 67km
Updated: Tue, 05-Jul-2022 5:56am MDT
Clear
Clear
 Wind from SE
Wind: SE 8 mph , 13 km/h
Temperature: 61°F , 16°C
Dew Point: 32°F , 0°C
Humidity: 34%
Barometer: 30.04 inHg , 1017.3 hPa
Clouds: Clear
Visibility: 10 miles , 16 km
2022/07/05 11:56 KPVU 051156Z AUTO 13007KT 10SM CLR 16/00 A3004 RMK AO2 SLP114 T01610000 10217 20150 53015
KHIF - Hill Afb/Ogden, Utah, USA
Distance from station: NW 45mi, 72km
Updated: Tue, 05-Jul-2022 5:58am MDT
Clear
Clear
 Wind from SE
Wind: SE 7 mph , 11 km/h
Temperature: 64°F , 18°C
Dew Point: 28°F , -2°C
Humidity: 26%
Barometer: 29.98 inHg , 1015.2 hPa
Clouds: Clear
Visibility: 10 miles , 16 km
2022/07/05 11:58 KHIF 051158Z AUTO 13006KT 10SM CLR 18/M02 A2998 RMK AO2 SLP088 T01821022 10240 20178 52016
 
KOGD - Ogden, Utah, USA
Distance from station: NW 50mi, 81km
Updated: Tue, 05-Jul-2022 5:53am MDT
Clear
Clear
 Wind from S
Wind: S 12 mph , 19 km/h
Temperature: 64°F , 18°C
Dew Point: 32°F , 0°C
Humidity: 30%
Barometer: 29.97 inHg , 1014.9 hPa
Clouds: Clear
Visibility: 10 miles , 16 km
2022/07/05 11:53 KOGD 051153Z AUTO 17010KT 10SM CLR 18/00 A2997 RMK AO2 SLP082 T01830000 10244 20178 51016 $